Time;durP1;ratioP1;P1;durP2;ratioP2;P2;SDS_P1;SDS_P2;PMS_P1;PMS_P2;Temp;Humidity;BMP_temperature;BMP_pressure;BME280_temperature;BME280_humidity;BME280_pressure;Samples;Min_cycle;Max_cycle;Signal;HPM_P1;HPM_P2
2022/10/24 00:00:23;;;;;;;0.70;0.70;;;;;;;17.18;70.98;100833.53;18242586;32;20521;-59
2022/10/24 00:10:28;;;;;;;0.55;0.55;;;;;;;17.72;68.56;100839.31;18241921;32;20456;-59
2022/10/24 00:20:31;;;;;;;0.20;0.20;;;;;;;17.76;68.37;100850.66;18241284;32;20137;-59
2022/10/24 00:30:40;;;;;;;0.95;0.95;;;;;;;17.73;68.48;100840.16;18241270;32;20087;-59
2022/10/24 00:40:43;;;;;;;0.22;0.22;;;;;;;17.86;67.83;100846.87;18241068;32;20114;-59
2022/10/24 00:50:50;;;;;;;0.45;0.45;;;;;;;17.68;68.61;100824.44;18239984;32;20159;-59
2022/10/24 01:00:53;;;;;;;3.08;0.75;;;;;;;17.73;68.28;100832.22;18240059;32;20101;-59
2022/10/24 01:11:05;;;;;;;0.40;0.40;;;;;;;17.47;69.04;100824.06;18239521;32;20485;-59
2022/10/24 01:21:15;;;;;;;0.37;0.37;;;;;;;17.37;69.26;100811.13;18239965;32;20104;-59
2022/10/24 01:31:24;;;;;;;0.45;0.45;;;;;;;16.53;72.34;100808.53;18243774;32;20101;-59
2022/10/24 01:41:28;;;;;;;0.30;0.30;;;;;;;17.40;68.47;100821.62;18246093;32;20086;-59
2022/10/24 01:51:34;;;;;;;0.65;0.65;;;;;;;17.02;70.03;100811.91;18245914;32;20108;-59
2022/10/24 02:01:39;;;;;;;0.40;0.40;;;;;;;16.55;71.77;100812.03;18245632;32;20098;-59
2022/10/24 02:11:45;;;;;;;0.50;0.50;;;;;;;16.65;71.24;100810.03;18245408;32;20116;-57
2022/10/24 02:21:53;;;;;;;0.45;0.40;;;;;;;16.62;70.68;100818.88;18245122;32;20427;-57
2022/10/24 02:31:58;;;;;;;1.55;0.95;;;;;;;16.40;71.07;100802.63;18244106;32;20089;-57
2022/10/24 02:42:02;;;;;;;0.40;0.40;;;;;;;16.23;71.21;100795.94;18242120;32;20082;-56
2022/10/24 02:52:07;;;;;;;0.50;0.50;;;;;;;15.28;74.74;100786.16;18240711;32;20125;-56
2022/10/24 03:02:10;;;;;;;0.73;0.55;;;;;;;15.71;73.58;100775.81;18239963;32;20112;-57
2022/10/24 03:12:15;;;;;;;0.28;0.28;;;;;;;15.88;73.37;100768.47;18239944;32;20102;-56
2022/10/24 03:22:18;;;;;;;0.60;0.45;;;;;;;16.46;70.67;100765.63;18239378;32;20098;-56
2022/10/24 03:32:23;;;;;;;1.27;0.75;;;;;;;16.70;69.48;100775.69;18234874;32;157248;-57
2022/10/24 03:42:31;;;;;;;0.57;0.52;;;;;;;16.47;70.20;100777.06;18243130;32;20484;-57
2022/10/24 03:52:36;;;;;;;0.30;0.30;;;;;;;16.29;70.85;100766.00;18265830;32;20090;-57
2022/10/24 04:02:39;;;;;;;0.30;0.30;;;;;;;16.39;70.42;100774.56;18242362;32;20108;-57
2022/10/24 04:12:47;;;;;;;0.60;0.60;;;;;;;16.58;69.50;100767.16;18242794;32;20129;-56
2022/10/24 04:22:50;;;;;;;0.22;0.22;;;;;;;16.50;69.76;100780.50;18241651;32;20118;-56
2022/10/24 04:32:55;;;;;;;2.05;0.82;;;;;;;16.45;69.73;100803.41;18241094;32;20474;-56
2022/10/24 04:42:58;;;;;;;1.10;0.77;;;;;;;16.44;69.57;100791.16;18240871;32;20112;-56
2022/10/24 04:53:03;;;;;;;0.57;0.57;;;;;;;15.79;71.59;100774.81;18253208;32;20121;-56
2022/10/24 05:03:06;;;;;;;0.37;0.37;;;;;;;15.90;70.96;100771.09;18258144;32;20165;-56
2022/10/24 05:13:10;;;;;;;0.95;0.30;;;;;;;16.11;70.01;100763.72;18302010;32;20090;-56
2022/10/24 05:23:13;;;;;;;0.60;0.60;;;;;;;16.28;69.40;100761.63;18301926;32;20119;-56
2022/10/24 05:33:18;;;;;;;1.33;1.08;;;;;;;15.49;72.57;100782.31;18301475;32;20115;-56
2022/10/24 05:43:21;;;;;;;0.40;0.40;;;;;;;16.07;70.03;100805.03;18302176;32;20156;-56
2022/10/24 05:53:26;;;;;;;0.77;0.68;;;;;;;16.22;69.50;100825.84;18297782;32;20736;-56
2022/10/24 06:03:29;;;;;;;1.45;1.35;;;;;;;15.94;70.79;100826.34;18293086;32;20478;-57
2022/10/24 06:13:34;;;;;;;0.40;0.40;;;;;;;16.04;70.31;100844.59;18279436;32;20111;-56
2022/10/24 06:23:38;;;;;;;2.17;1.10;;;;;;;16.25;69.37;100856.50;18265557;32;20078;-57
2022/10/24 06:33:42;;;;;;;1.55;0.88;;;;;;;16.11;69.81;100856.75;18241276;32;20116;-56
2022/10/24 06:43:46;;;;;;;3.12;0.62;;;;;;;15.98;70.62;100845.56;18262731;32;20457;-57
2022/10/24 06:53:51;;;;;;;0.95;0.62;;;;;;;15.77;71.82;100849.41;18288485;32;20117;-56
2022/10/24 07:03:54;;;;;;;0.90;0.90;;;;;;;14.95;74.83;100848.84;18242491;32;20098;-56
2022/10/24 07:13:59;;;;;;;0.52;0.52;;;;;;;14.46;77.51;100826.63;18260188;32;20107;-56
2022/10/24 07:24:05;;;;;;;2.53;0.70;;;;;;;14.81;76.23;100834.16;18304313;32;20129;-56
2022/10/24 07:34:10;;;;;;;0.55;0.55;;;;;;;15.66;72.54;100847.84;18305518;32;20106;-56
2022/10/24 07:44:13;;;;;;;10.38;0.62;;;;;;;16.10;71.04;100899.78;18305287;32;20089;-56
2022/10/24 07:54:17;;;;;;;1.10;0.80;;;;;;;16.14;70.91;100890.06;18304438;32;20101;-56
2022/10/24 08:04:20;;;;;;;1.58;1.48;;;;;;;14.44;79.50;100826.69;18299685;32;20223;-56
2022/10/24 08:14:25;;;;;;;0.28;0.28;;;;;;;15.69;73.84;100839.00;18297893;32;20112;-56
2022/10/24 08:24:28;;;;;;;1.10;0.60;;;;;;;16.39;71.17;100821.97;18301801;32;20139;-56
2022/10/24 08:34:33;;;;;;;0.32;0.32;;;;;;;16.01;71.53;100811.28;18302383;32;20098;-56
2022/10/24 08:44:38;;;;;;;0.95;0.65;;;;;;;16.57;69.27;100819.87;18280163;32;20090;-56
2022/10/24 08:54:44;;;;;;;0.40;0.40;;;;;;;15.80;70.83;100808.12;18302480;32;20085;-59
2022/10/24 09:04:52;;;;;;;1.23;1.12;;;;;;;16.55;68.62;100797.97;18301850;32;20121;-58
2022/10/24 09:14:58;;;;;;;1.50;0.88;;;;;;;17.03;67.37;100797.81;18301186;32;20475;-57
2022/10/24 09:25:04;;;;;;;0.40;0.40;;;;;;;17.02;67.48;100803.13;18300819;32;20459;-58
2022/10/24 09:35:15;;;;;;;0.45;0.43;;;;;;;17.10;67.01;100813.53;18299325;32;20129;-57
2022/10/24 09:45:21;;;;;;;0.33;0.33;;;;;;;17.22;66.65;100813.22;18299650;32;20082;-57
2022/10/24 09:55:27;;;;;;;0.43;0.43;;;;;;;17.15;66.95;100830.97;18309107;32;20115;-57
2022/10/24 10:05:43;;;;;;;0.25;0.25;;;;;;;17.21;67.25;100851.06;18307273;32;20089;-57
2022/10/24 10:15:49;;;;;;;0.65;0.37;;;;;;;17.21;67.47;100851.06;18307223;32;20104;-57
2022/10/24 10:26:07;;;;;;;0.70;0.32;;;;;;;17.32;67.36;100825.28;18308356;32;20135;-57
2022/10/24 10:36:14;;;;;;;0.20;0.20;;;;;;;17.25;68.66;100802.59;18306194;32;20159;-57
2022/10/24 10:46:21;;;;;;;1.95;0.40;;;;;;;17.40;69.33;100785.50;18306233;32;20086;-57
2022/10/24 10:56:32;;;;;;;0.30;0.30;;;;;;;17.48;68.73;100783.56;18305201;32;20136;-57
2022/10/24 11:06:44;;;;;;;2.12;0.52;;;;;;;17.66;67.81;100780.53;18306857;32;20128;-57
2022/10/24 11:16:49;;;;;;;1.35;0.55;;;;;;;17.27;68.45;100763.88;18304780;32;20140;-57
2022/10/24 11:26:56;;;;;;;0.35;0.35;;;;;;;17.61;67.17;100754.25;18304948;32;20160;-57
2022/10/24 11:37:05;;;;;;;0.75;0.68;;;;;;;17.83;66.65;100756.31;18305766;32;20108;-57
2022/10/24 11:47:31;;;;;;;0.40;0.40;;;;;;;17.76;66.37;100750.31;18304295;32;20168;-57
2022/10/24 11:57:36;;;;;;;0.50;0.50;;;;;;;17.89;66.83;100749.06;18305795;32;20098;-57
2022/10/24 12:08:13;;;;;;;2.30;1.25;;;;;;;18.09;65.88;100736.28;18302640;32;20173;-57
2022/10/24 12:18:29;;;;;;;0.30;0.30;;;;;;;18.25;65.82;100734.91;18302461;32;20108;-57
2022/10/24 12:28:32;;;;;;;0.93;0.70;;;;;;;18.27;65.73;100726.94;18303074;32;20093;-57
2022/10/24 12:39:06;;;;;;;0.43;0.43;;;;;;;18.25;65.59;100716.41;18293711;32;20193;-57
2022/10/24 12:49:18;;;;;;;0.25;0.25;;;;;;;18.36;65.20;100702.88;18260218;32;20185;-57
2022/10/24 12:59:28;;;;;;;0.65;0.55;;;;;;;16.93;70.12;100706.62;18301274;32;20085;-57
2022/10/24 13:09:41;;;;;;;0.52;0.45;;;;;;;17.11;69.37;100697.41;18298322;32;20089;-58
2022/10/24 13:19:45;;;;;;;0.30;0.30;;;;;;;17.95;66.36;100697.00;18238625;32;20435;-57
2022/10/24 13:30:24;;;;;;;0.77;0.77;;;;;;;17.99;66.10;100672.22;18291120;32;20097;-57
2022/10/24 13:40:29;;;;;;;0.30;0.30;;;;;;;17.78;66.80;100679.84;18309113;32;20112;-57
2022/10/24 13:50:37;;;;;;;0.57;0.45;;;;;;;17.91;66.87;100677.75;18306137;32;20102;-57
2022/10/24 14:00:43;;;;;;;1.27;0.50;;;;;;;18.10;66.23;100659.59;18307493;32;20113;-57
2022/10/24 14:10:48;;;;;;;0.37;0.22;;;;;;;18.18;65.72;100656.75;18307581;32;20415;-57
2022/10/24 14:20:52;;;;;;;0.62;0.57;;;;;;;18.17;65.73;100655.88;18308559;32;20145;-57
2022/10/24 14:30:58;;;;;;;0.90;0.90;;;;;;;18.28;65.58;100654.69;18307714;32;20101;-57
2022/10/24 14:41:02;;;;;;;1.75;0.90;;;;;;;18.38;65.06;100650.84;18307068;32;20132;-57
2022/10/24 14:51:17;;;;;;;0.75;0.57;;;;;;;18.40;65.28;100656.09;18307380;32;20127;-57
2022/10/24 15:01:22;;;;;;;1.12;0.75;;;;;;;18.37;65.27;100653.53;18306495;32;20121;-57
2022/10/24 15:11:29;;;;;;;0.22;0.22;;;;;;;18.42;65.20;100656.91;18306420;32;20086;-58
2022/10/24 15:21:35;;;;;;;0.82;0.82;;;;;;;18.45;65.34;100667.41;18306631;32;20117;-57
2022/10/24 15:31:42;;;;;;;1.65;0.52;;;;;;;18.32;65.54;100651.03;18306091;32;20082;-57
2022/10/24 15:41:45;;;;;;;1.55;1.17;;;;;;;18.25;65.88;100642.41;18305451;32;20430;-57
2022/10/24 15:51:50;;;;;;;0.85;0.35;;;;;;;18.21;66.04;100643.44;18305499;32;20078;-57
2022/10/24 16:01:55;;;;;;;0.40;0.40;;;;;;;18.19;66.19;100641.75;18304788;32;20460;-57
2022/10/24 16:12:00;;;;;;;0.77;0.60;;;;;;;18.12;66.60;100636.66;18304636;32;20344;-57
2022/10/24 16:22:03;;;;;;;0.30;0.30;;;;;;;17.91;67.55;100627.56;18303931;32;20116;-57
2022/10/24 16:32:07;;;;;;;0.37;0.37;;;;;;;18.09;66.55;100649.09;18302437;32;20098;-57
2022/10/24 16:42:11;;;;;;;0.85;0.82;;;;;;;18.00;66.90;100653.69;18304023;32;20090;-57
2022/10/24 16:52:15;;;;;;;1.17;0.85;;;;;;;17.98;66.98;100657.28;18291747;32;20098;-57
2022/10/24 17:02:19;;;;;;;0.50;0.50;;;;;;;17.94;67.15;100669.72;18298169;32;20097;-57
2022/10/24 17:12:26;;;;;;;4.87;1.17;;;;;;;17.90;67.31;100668.09;18298192;32;20085;-57
2022/10/24 17:22:29;;;;;;;1.58;1.10;;;;;;;17.86;67.62;100658.50;18299391;32;20184;-57
2022/10/24 17:32:34;;;;;;;0.30;0.30;;;;;;;17.77;68.07;100645.56;18298085;32;20483;-57
2022/10/24 17:42:39;;;;;;;1.00;0.90;;;;;;;17.43;69.43;100631.53;18282364;32;20102;-57
2022/10/24 17:52:49;;;;;;;1.92;0.57;;;;;;;17.64;68.12;100640.63;18238313;32;20094;-58
2022/10/24 18:02:53;;;;;;;0.20;0.20;;;;;;;17.56;67.93;100647.91;18236800;32;20124;-57
2022/10/24 18:12:58;;;;;;;2.45;0.93;;;;;;;17.38;68.01;100657.19;18242095;32;20459;-57
2022/10/24 18:23:06;;;;;;;1.30;1.15;;;;;;;17.28;67.83;100638.09;18243766;32;20101;-57
2022/10/24 18:33:11;;;;;;;0.55;0.55;;;;;;;17.11;67.83;100657.84;18243082;32;20109;-58
2022/10/24 18:43:15;;;;;;;0.60;0.60;;;;;;;16.63;69.21;100630.84;18253339;32;20106;-58
2022/10/24 18:53:23;;;;;;;1.27;1.05;;;;;;;16.55;70.49;100617.00;18290263;32;20114;-58
2022/10/24 19:03:32;;;;;;;0.70;0.70;;;;;;;16.74;69.44;100600.72;18286124;32;20120;-57
2022/10/24 19:13:37;;;;;;;0.62;0.62;;;;;;;16.74;69.01;100590.19;18263238;32;20355;-57
2022/10/24 19:23:40;;;;;;;0.68;0.68;;;;;;;16.54;68.93;100598.59;18306247;32;20158;-57
2022/10/24 19:33:45;;;;;;;1.02;0.95;;;;;;;16.40;68.80;100591.00;18305365;32;20101;-58
2022/10/24 19:43:49;;;;;;;0.60;0.60;;;;;;;16.24;68.57;100591.34;18306195;32;20093;-57
2022/10/24 19:53:55;;;;;;;3.00;2.20;;;;;;;16.08;68.48;100593.47;18304472;32;20415;-57
2022/10/24 20:04:00;;;;;;;0.70;0.68;;;;;;;15.86;68.67;100590.41;18305287;32;20093;-57
2022/10/24 20:14:05;;;;;;;0.57;0.57;;;;;;;15.75;68.90;100582.75;18303359;32;20112;-58
2022/10/24 20:24:08;;;;;;;4.05;2.80;;;;;;;15.60;69.24;100555.84;18290783;32;20177;-58
2022/10/24 20:34:14;;;;;;;0.35;0.35;;;;;;;15.63;68.94;100563.66;18293897;32;20112;-58
2022/10/24 20:44:18;;;;;;;1.00;0.93;;;;;;;15.48;69.94;100562.22;18262247;32;20113;-57
2022/10/24 20:54:22;;;;;;;0.50;0.50;;;;;;;15.61;69.85;100554.09;18240525;32;20437;-57
2022/10/24 21:04:26;;;;;;;0.85;0.62;;;;;;;15.70;69.46;100540.75;18239512;32;20638;-57
2022/10/24 21:14:30;;;;;;;0.60;0.60;;;;;;;15.76;69.67;100552.91;18239529;32;20118;-58
2022/10/24 21:24:34;;;;;;;0.82;0.82;;;;;;;16.13;69.90;100559.13;18240173;32;20098;-57
2022/10/24 21:34:38;;;;;;;1.10;0.47;;;;;;;16.13;70.79;100557.38;18256161;32;20108;-58
2022/10/24 21:44:41;;;;;;;1.35;1.27;;;;;;;16.15;71.42;100570.50;18288440;32;20157;-58
2022/10/24 21:54:46;;;;;;;1.25;0.82;;;;;;;16.23;71.27;100577.34;18279088;32;20110;-58
2022/10/24 22:04:49;;;;;;;0.32;0.32;;;;;;;16.36;71.17;100579.69;18271810;32;20112;-57
2022/10/24 22:14:53;;;;;;;2.50;1.27;;;;;;;16.42;71.14;100592.72;18309585;32;20104;-58
2022/10/24 22:24:56;;;;;;;0.68;0.37;;;;;;;16.68;70.35;100601.75;18294394;32;20163;-57
2022/10/24 22:35:02;;;;;;;0.70;0.70;;;;;;;16.65;70.75;100593.91;18260420;32;20144;-58
2022/10/24 22:45:06;;;;;;;0.40;0.40;;;;;;;16.81;70.52;100596.19;18244201;32;20181;-58
2022/10/24 22:55:18;;;;;;;1.85;0.77;;;;;;;16.39;72.74;100598.03;18266318;32;20097;-57
2022/10/24 23:05:28;;;;;;;0.85;0.85;;;;;;;16.78;71.03;100608.50;18308417;32;20139;-57
2022/10/24 23:15:33;;;;;;;1.45;0.75;;;;;;;16.86;70.52;100589.87;18307176;32;20124;-58
2022/10/24 23:25:37;;;;;;;1.55;0.75;;;;;;;16.88;70.45;100588.06;18307691;32;20101;-58
2022/10/24 23:35:48;;;;;;;0.77;0.77;;;;;;;16.87;70.51;100582.84;18307367;32;20123;-58
2022/10/24 23:45:56;;;;;;;0.62;0.62;;;;;;;16.84;70.56;100554.81;18306173;32;20085;-57
2022/10/24 23:56:01;;;;;;;0.98;0.95;;;;;;;16.84;70.73;100567.09;18306040;32;20085;-58
